sensor_id;sensor_type;location;lat;lon;timestamp;pressure;altitude;pressure_sealevel;temperature;humidity
52591;BME280;38483;42.620;25.394;2023-08-08T00:01:37;96668.56;;;21.81;57.36
52591;BME280;38483;42.620;25.394;2023-08-08T00:04:05;96672.38;;;21.87;57.26
52591;BME280;38483;42.620;25.394;2023-08-08T00:06:32;96670.06;;;21.84;57.27
52591;BME280;38483;42.620;25.394;2023-08-08T00:09:00;96669.56;;;21.98;57.42
52591;BME280;38483;42.620;25.394;2023-08-08T00:11:27;96665.16;;;21.62;58.41
52591;BME280;38483;42.620;25.394;2023-08-08T00:13:54;96656.44;;;21.79;57.79
52591;BME280;38483;42.620;25.394;2023-08-08T00:16:22;96673.75;;;21.91;57.60
52591;BME280;38483;42.620;25.394;2023-08-08T00:18:50;96673.63;;;21.93;57.78
52591;BME280;38483;42.620;25.394;2023-08-08T00:21:20;96663.31;;;21.72;57.93
52591;BME280;38483;42.620;25.394;2023-08-08T00:23:48;96656.66;;;21.68;57.99
52591;BME280;38483;42.620;25.394;2023-08-08T00:26:15;96658.84;;;21.72;57.91
52591;BME280;38483;42.620;25.394;2023-08-08T00:28:42;96664.28;;;21.98;58.10
52591;BME280;38483;42.620;25.394;2023-08-08T00:31:09;96636.47;;;21.86;57.80
52591;BME280;38483;42.620;25.394;2023-08-08T00:33:37;96658.75;;;21.92;57.57
52591;BME280;38483;42.620;25.394;2023-08-08T00:36:05;96666.47;;;22.03;57.17
52591;BME280;38483;42.620;25.394;2023-08-08T00:38:32;96669.28;;;22.19;56.36
52591;BME280;38483;42.620;25.394;2023-08-08T00:40:59;96659.53;;;22.37;56.50
52591;BME280;38483;42.620;25.394;2023-08-08T00:43:26;96667.84;;;22.42;56.31
52591;BME280;38483;42.620;25.394;2023-08-08T00:45:54;96662.72;;;22.58;55.92
52591;BME280;38483;42.620;25.394;2023-08-08T00:48:21;96670.31;;;22.43;56.42
52591;BME280;38483;42.620;25.394;2023-08-08T00:50:49;96650.56;;;22.12;56.65
52591;BME280;38483;42.620;25.394;2023-08-08T00:53:18;96655.69;;;21.96;57.71
52591;BME280;38483;42.620;25.394;2023-08-08T00:55:46;96663.97;;;22.01;57.22
52591;BME280;38483;42.620;25.394;2023-08-08T00:58:15;96669.47;;;22.08;57.35
52591;BME280;38483;42.620;25.394;2023-08-08T01:00:42;96663.06;;;22.10;56.97
52591;BME280;38483;42.620;25.394;2023-08-08T01:03:09;96681.81;;;22.07;57.14
52591;BME280;38483;42.620;25.394;2023-08-08T01:09:13;96682.00;;;22.23;57.35
52591;BME280;38483;42.620;25.394;2023-08-08T01:11:43;96674.06;;;22.06;57.46
52591;BME280;38483;42.620;25.394;2023-08-08T01:14:16;96680.78;;;22.18;57.52
52591;BME280;38483;42.620;25.394;2023-08-08T01:16:45;96689.56;;;21.91;58.42
52591;BME280;38483;42.620;25.394;2023-08-08T01:19:21;96676.63;;;21.70;58.69
52591;BME280;38483;42.620;25.394;2023-08-08T01:21:53;96689.44;;;21.56;58.90
52591;BME280;38483;42.620;25.394;2023-08-08T01:24:24;96696.16;;;21.50;58.43
52591;BME280;38483;42.620;25.394;2023-08-08T01:26:59;96689.88;;;21.24;59.33
52591;BME280;38483;42.620;25.394;2023-08-08T01:29:27;96707.91;;;21.29;59.41
52591;BME280;38483;42.620;25.394;2023-08-08T01:31:55;96716.78;;;21.55;58.89
52591;BME280;38483;42.620;25.394;2023-08-08T01:34:23;96718.31;;;21.57;58.88
52591;BME280;38483;42.620;25.394;2023-08-08T01:36:57;96722.56;;;21.31;58.76
52591;BME280;38483;42.620;25.394;2023-08-08T01:39:30;96710.72;;;21.08;58.13
52591;BME280;38483;42.620;25.394;2023-08-08T01:41:58;96700.75;;;20.83;59.06
52591;BME280;38483;42.620;25.394;2023-08-08T01:44:28;96697.16;;;20.93;58.98
52591;BME280;38483;42.620;25.394;2023-08-08T01:46:55;96697.28;;;20.82;58.95
52591;BME280;38483;42.620;25.394;2023-08-08T01:49:23;96698.97;;;20.83;58.96
52591;BME280;38483;42.620;25.394;2023-08-08T01:51:50;96683.59;;;20.79;59.28
52591;BME280;38483;42.620;25.394;2023-08-08T01:54:19;96643.59;;;20.56;58.94
52591;BME280;38483;42.620;25.394;2023-08-08T01:56:46;96676.13;;;20.74;59.40
52591;BME280;38483;42.620;25.394;2023-08-08T01:59:14;96697.00;;;21.04;58.95
52591;BME280;38483;42.620;25.394;2023-08-08T02:01:42;96691.06;;;20.83;58.95
52591;BME280;38483;42.620;25.394;2023-08-08T02:04:10;96689.63;;;20.98;58.84
52591;BME280;38483;42.620;25.394;2023-08-08T02:06:37;96696.72;;;21.08;58.97
52591;BME280;38483;42.620;25.394;2023-08-08T02:09:05;96697.41;;;21.10;58.71
52591;BME280;38483;42.620;25.394;2023-08-08T02:11:34;96695.47;;;21.12;58.99
52591;BME280;38483;42.620;25.394;2023-08-08T02:14:02;96698.09;;;21.12;59.01
52591;BME280;38483;42.620;25.394;2023-08-08T02:16:29;96705.84;;;21.50;58.73
52591;BME280;38483;42.620;25.394;2023-08-08T02:18:57;96702.00;;;21.71;60.87
52591;BME280;38483;42.620;25.394;2023-08-08T02:21:26;96699.91;;;21.75;61.72
52591;BME280;38483;42.620;25.394;2023-08-08T02:23:53;96706.00;;;21.85;61.28
52591;BME280;38483;42.620;25.394;2023-08-08T02:26:21;96707.13;;;21.73;61.57
52591;BME280;38483;42.620;25.394;2023-08-08T02:28:48;96701.47;;;21.95;63.07
52591;BME280;38483;42.620;25.394;2023-08-08T02:31:16;96657.19;;;21.71;62.41
52591;BME280;38483;42.620;25.394;2023-08-08T02:33:50;96706.16;;;21.74;62.96
52591;BME280;38483;42.620;25.394;2023-08-08T02:36:18;96701.34;;;21.69;62.26
52591;BME280;38483;42.620;25.394;2023-08-08T02:38:45;96700.94;;;21.64;63.09
52591;BME280;38483;42.620;25.394;2023-08-08T02:41:13;96642.53;;;21.05;65.22
52591;BME280;38483;42.620;25.394;2023-08-08T02:43:40;96714.16;;;21.55;65.90
52591;BME280;38483;42.620;25.394;2023-08-08T02:46:07;96694.38;;;21.41;65.54
52591;BME280;38483;42.620;25.394;2023-08-08T02:48:35;96707.31;;;21.35;65.98
52591;BME280;38483;42.620;25.394;2023-08-08T02:51:02;96671.13;;;21.27;65.81
52591;BME280;38483;42.620;25.394;2023-08-08T02:53:29;96709.84;;;21.27;67.14
52591;BME280;38483;42.620;25.394;2023-08-08T02:55:57;96724.44;;;21.48;68.01
52591;BME280;38483;42.620;25.394;2023-08-08T02:58:28;96732.75;;;21.53;67.66
52591;BME280;38483;42.620;25.394;2023-08-08T03:00:57;96725.28;;;21.49;67.61
52591;BME280;38483;42.620;25.394;2023-08-08T03:03:25;96728.16;;;20.99;69.27
52591;BME280;38483;42.620;25.394;2023-08-08T03:05:52;96735.69;;;21.04;70.11
52591;BME280;38483;42.620;25.394;2023-08-08T03:08:19;96729.97;;;21.08;68.80
52591;BME280;38483;42.620;25.394;2023-08-08T03:10:46;96742.59;;;21.05;68.69
52591;BME280;38483;42.620;25.394;2023-08-08T03:13:14;96736.25;;;20.50;69.36
52591;BME280;38483;42.620;25.394;2023-08-08T03:15:41;96745.38;;;20.56;69.37
52591;BME280;38483;42.620;25.394;2023-08-08T03:18:09;96748.44;;;20.61;67.29
52591;BME280;38483;42.620;25.394;2023-08-08T03:20:36;96751.19;;;20.78;68.15
52591;BME280;38483;42.620;25.394;2023-08-08T03:23:04;96758.41;;;20.67;67.60
52591;BME280;38483;42.620;25.394;2023-08-08T03:25:32;96759.38;;;20.56;67.38
52591;BME280;38483;42.620;25.394;2023-08-08T03:28:00;96766.03;;;20.60;68.11
52591;BME280;38483;42.620;25.394;2023-08-08T03:30:27;96757.97;;;20.43;67.47
52591;BME280;38483;42.620;25.394;2023-08-08T03:32:55;96751.91;;;20.42;68.63
52591;BME280;38483;42.620;25.394;2023-08-08T03:35:22;96769.19;;;20.45;69.20
52591;BME280;38483;42.620;25.394;2023-08-08T03:37:49;96769.44;;;20.32;69.91
52591;BME280;38483;42.620;25.394;2023-08-08T03:40:16;96768.00;;;20.18;69.36
52591;BME280;38483;42.620;25.394;2023-08-08T03:42:45;96755.19;;;19.85;69.83
52591;BME280;38483;42.620;25.394;2023-08-08T03:45:12;96757.63;;;19.68;69.67
52591;BME280;38483;42.620;25.394;2023-08-08T03:47:40;96781.75;;;19.82;70.40
52591;BME280;38483;42.620;25.394;2023-08-08T03:50:07;96791.91;;;19.96;69.78
52591;BME280;38483;42.620;25.394;2023-08-08T03:52:37;96791.75;;;19.98;69.34
52591;BME280;38483;42.620;25.394;2023-08-08T03:55:10;96789.09;;;19.88;69.09
52591;BME280;38483;42.620;25.394;2023-08-08T03:57:39;96791.69;;;19.79;69.56
52591;BME280;38483;42.620;25.394;2023-08-08T04:00:07;96818.88;;;19.98;70.48
52591;BME280;38483;42.620;25.394;2023-08-08T04:02:41;96822.53;;;20.07;69.84
52591;BME280;38483;42.620;25.394;2023-08-08T04:05:09;96836.91;;;20.03;70.39
52591;BME280;38483;42.620;25.394;2023-08-08T04:07:36;96845.72;;;20.02;68.96
52591;BME280;38483;42.620;25.394;2023-08-08T04:10:03;96860.28;;;19.76;69.22
52591;BME280;38483;42.620;25.394;2023-08-08T04:12:32;96872.56;;;19.45;70.11
52591;BME280;38483;42.620;25.394;2023-08-08T04:15:00;96863.06;;;19.33;70.68
52591;BME280;38483;42.620;25.394;2023-08-08T04:17:32;96859.16;;;18.96;71.39
52591;BME280;38483;42.620;25.394;2023-08-08T04:19:59;96883.88;;;18.93;72.86
52591;BME280;38483;42.620;25.394;2023-08-08T04:22:30;96862.91;;;18.82;72.01
52591;BME280;38483;42.620;25.394;2023-08-08T04:24:57;96853.44;;;18.91;72.84
52591;BME280;38483;42.620;25.394;2023-08-08T04:27:24;96878.69;;;19.03;72.91
52591;BME280;38483;42.620;25.394;2023-08-08T04:29:51;96863.41;;;19.08;71.89
52591;BME280;38483;42.620;25.394;2023-08-08T04:32:18;96859.38;;;19.24;73.07
52591;BME280;38483;42.620;25.394;2023-08-08T04:34:46;96880.13;;;19.27;72.49
52591;BME280;38483;42.620;25.394;2023-08-08T04:37:13;96872.91;;;19.20;73.71
52591;BME280;38483;42.620;25.394;2023-08-08T04:39:41;96888.13;;;19.37;72.81
52591;BME280;38483;42.620;25.394;2023-08-08T04:42:09;96879.28;;;19.27;73.32
52591;BME280;38483;42.620;25.394;2023-08-08T04:44:36;96892.41;;;19.38;73.39
52591;BME280;38483;42.620;25.394;2023-08-08T04:47:04;96905.91;;;19.33;74.45
52591;BME280;38483;42.620;25.394;2023-08-08T04:49:31;96909.94;;;19.06;74.87
52591;BME280;38483;42.620;25.394;2023-08-08T04:51:59;96920.25;;;18.98;75.49
52591;BME280;38483;42.620;25.394;2023-08-08T04:54:26;96931.34;;;18.90;75.87
52591;BME280;38483;42.620;25.394;2023-08-08T04:56:53;96941.91;;;18.68;76.00
52591;BME280;38483;42.620;25.394;2023-08-08T04:59:20;96946.34;;;18.56;76.41
52591;BME280;38483;42.620;25.394;2023-08-08T05:01:47;96977.19;;;18.64;76.23
52591;BME280;38483;42.620;25.394;2023-08-08T05:04:14;96972.22;;;18.50;75.72
52591;BME280;38483;42.620;25.394;2023-08-08T05:06:41;96996.34;;;18.42;75.36
52591;BME280;38483;42.620;25.394;2023-08-08T05:09:08;96978.50;;;18.25;73.54
52591;BME280;38483;42.620;25.394;2023-08-08T05:11:36;96983.13;;;18.22;74.56
52591;BME280;38483;42.620;25.394;2023-08-08T05:14:03;96978.56;;;18.02;75.41
52591;BME280;38483;42.620;25.394;2023-08-08T05:16:30;96976.19;;;17.99;74.50
52591;BME280;38483;42.620;25.394;2023-08-08T05:18:58;96971.06;;;17.97;76.07
52591;BME280;38483;42.620;25.394;2023-08-08T05:21:25;96969.63;;;17.82;77.08
52591;BME280;38483;42.620;25.394;2023-08-08T05:23:52;96960.63;;;17.62;76.51
52591;BME280;38483;42.620;25.394;2023-08-08T05:26:22;96965.09;;;17.84;77.17
52591;BME280;38483;42.620;25.394;2023-08-08T05:28:49;96988.97;;;18.03;76.20
52591;BME280;38483;42.620;25.394;2023-08-08T05:31:16;96971.69;;;18.01;76.33
52591;BME280;38483;42.620;25.394;2023-08-08T05:33:44;96988.50;;;18.31;76.77
52591;BME280;38483;42.620;25.394;2023-08-08T05:36:11;96932.84;;;18.06;75.20
52591;BME280;38483;42.620;25.394;2023-08-08T05:38:38;97003.88;;;18.36;73.87
52591;BME280;38483;42.620;25.394;2023-08-08T05:41:05;96987.69;;;18.53;73.99
52591;BME280;38483;42.620;25.394;2023-08-08T05:43:33;97012.72;;;18.68;74.71
52591;BME280;38483;42.620;25.394;2023-08-08T05:46:03;97018.31;;;18.86;73.70
52591;BME280;38483;42.620;25.394;2023-08-08T05:48:31;97015.84;;;18.73;72.87
52591;BME280;38483;42.620;25.394;2023-08-08T05:50:59;97013.09;;;18.63;74.03
52591;BME280;38483;42.620;25.394;2023-08-08T05:53:26;97026.56;;;18.59;72.78
52591;BME280;38483;42.620;25.394;2023-08-08T05:55:54;97006.16;;;18.51;73.93
52591;BME280;38483;42.620;25.394;2023-08-08T05:58:21;97022.03;;;18.61;72.42
52591;BME280;38483;42.620;25.394;2023-08-08T06:00:49;96998.91;;;18.44;72.35
52591;BME280;38483;42.620;25.394;2023-08-08T06:03:16;97015.91;;;18.38;72.28
52591;BME280;38483;42.620;25.394;2023-08-08T06:05:43;96987.53;;;18.21;73.12
52591;BME280;38483;42.620;25.394;2023-08-08T06:08:11;97013.41;;;18.37;74.47
52591;BME280;38483;42.620;25.394;2023-08-08T06:11:15;97010.47;;;18.52;72.73
52591;BME280;38483;42.620;25.394;2023-08-08T06:14:36;97018.59;;;18.60;73.18
52591;BME280;38483;42.620;25.394;2023-08-08T06:17:56;97019.63;;;18.80;72.73
52591;BME280;38483;42.620;25.394;2023-08-08T06:21:18;96975.06;;;18.47;74.74
52591;BME280;38483;42.620;25.394;2023-08-08T06:24:38;97020.34;;;18.82;73.12
52591;BME280;38483;42.620;25.394;2023-08-08T06:27:59;97021.06;;;18.95;72.97
52591;BME280;38483;42.620;25.394;2023-08-08T06:31:20;97008.88;;;18.94;71.98
52591;BME280;38483;42.620;25.394;2023-08-08T06:34:41;97017.94;;;19.12;72.02
52591;BME280;38483;42.620;25.394;2023-08-08T06:38:02;97019.88;;;18.66;71.52
52591;BME280;38483;42.620;25.394;2023-08-08T06:41:23;97027.25;;;18.94;71.99
52591;BME280;38483;42.620;25.394;2023-08-08T06:44:54;97037.28;;;18.89;71.51
52591;BME280;38483;42.620;25.394;2023-08-08T06:48:15;97036.22;;;18.47;73.23
52591;BME280;38483;42.620;25.394;2023-08-08T06:51:35;97047.06;;;18.65;72.72
52591;BME280;38483;42.620;25.394;2023-08-08T06:54:56;97053.97;;;18.55;73.13
52591;BME280;38483;42.620;25.394;2023-08-08T06:58:17;97051.94;;;18.47;72.50
52591;BME280;38483;42.620;25.394;2023-08-08T07:01:37;97064.75;;;18.28;73.43
52591;BME280;38483;42.620;25.394;2023-08-08T07:04:58;97077.09;;;18.04;72.66
52591;BME280;38483;42.620;25.394;2023-08-08T07:08:19;97084.97;;;18.04;73.19
52591;BME280;38483;42.620;25.394;2023-08-08T07:11:40;97102.44;;;17.93;69.46
52591;BME280;38483;42.620;25.394;2023-08-08T07:15:00;97097.44;;;17.30;72.12
52591;BME280;38483;42.620;25.394;2023-08-08T07:18:21;97096.09;;;17.24;71.84
52591;BME280;38483;42.620;25.394;2023-08-08T07:21:42;97091.03;;;17.34;71.95
52591;BME280;38483;42.620;25.394;2023-08-08T07:25:02;97073.63;;;17.45;72.29
52591;BME280;38483;42.620;25.394;2023-08-08T07:28:23;97078.28;;;17.65;72.56
52591;BME280;38483;42.620;25.394;2023-08-08T07:31:44;97080.63;;;17.92;72.04
52591;BME280;38483;42.620;25.394;2023-08-08T07:35:05;97063.59;;;17.86;68.95
52591;BME280;38483;42.620;25.394;2023-08-08T07:38:26;97079.19;;;17.41;73.19
52591;BME280;38483;42.620;25.394;2023-08-08T07:41:47;97071.75;;;17.11;72.42
52591;BME280;38483;42.620;25.394;2023-08-08T07:45:09;97069.44;;;17.06;69.31
52591;BME280;38483;42.620;25.394;2023-08-08T07:48:30;96980.84;;;16.66;67.63
52591;BME280;38483;42.620;25.394;2023-08-08T07:51:51;97065.91;;;17.07;68.30
52591;BME280;38483;42.620;25.394;2023-08-08T07:55:11;97058.69;;;17.35;68.05
52591;BME280;38483;42.620;25.394;2023-08-08T07:58:32;97060.53;;;17.93;68.82
52591;BME280;38483;42.620;25.394;2023-08-08T08:01:53;97055.63;;;17.99;68.65
52591;BME280;38483;42.620;25.394;2023-08-08T08:05:13;97059.59;;;17.70;71.09
52591;BME280;38483;42.620;25.394;2023-08-08T08:08:35;97061.19;;;17.60;70.42
52591;BME280;38483;42.620;25.394;2023-08-08T08:11:56;97067.03;;;17.87;70.43
52591;BME280;38483;42.620;25.394;2023-08-08T08:15:17;97073.50;;;17.94;68.22
52591;BME280;38483;42.620;25.394;2023-08-08T08:18:37;97072.69;;;18.05;67.07
52591;BME280;38483;42.620;25.394;2023-08-08T08:21:58;97072.59;;;18.06;65.84
52591;BME280;38483;42.620;25.394;2023-08-08T08:25:19;97066.16;;;18.56;66.54
52591;BME280;38483;42.620;25.394;2023-08-08T08:28:40;97080.94;;;18.46;63.92
52591;BME280;38483;42.620;25.394;2023-08-08T08:32:02;97082.00;;;18.54;62.69
52591;BME280;38483;42.620;25.394;2023-08-08T08:35:23;97087.59;;;18.50;62.96
52591;BME280;38483;42.620;25.394;2023-08-08T08:38:44;97046.78;;;18.35;63.50
52591;BME280;38483;42.620;25.394;2023-08-08T08:42:05;97076.88;;;18.86;63.01
52591;BME280;38483;42.620;25.394;2023-08-08T08:45:26;97080.59;;;19.06;62.58
52591;BME280;38483;42.620;25.394;2023-08-08T08:48:48;97080.94;;;19.01;61.34
52591;BME280;38483;42.620;25.394;2023-08-08T08:52:09;97083.16;;;19.17;60.19
52591;BME280;38483;42.620;25.394;2023-08-08T08:55:30;97074.69;;;19.46;56.33
52591;BME280;38483;42.620;25.394;2023-08-08T08:58:51;97067.28;;;19.40;54.86
52591;BME280;38483;42.620;25.394;2023-08-08T09:02:11;97070.84;;;19.51;55.04
52591;BME280;38483;42.620;25.394;2023-08-08T09:05:32;97084.16;;;19.70;54.55
52591;BME280;38483;42.620;25.394;2023-08-08T09:08:55;97093.84;;;20.01;54.29
52591;BME280;38483;42.620;25.394;2023-08-08T09:12:16;97082.81;;;20.07;54.38
52591;BME280;38483;42.620;25.394;2023-08-08T09:15:37;97078.88;;;20.33;54.05
52591;BME280;38483;42.620;25.394;2023-08-08T09:18:58;97083.03;;;20.56;53.47
52591;BME280;38483;42.620;25.394;2023-08-08T09:22:19;97075.00;;;20.58;53.36
52591;BME280;38483;42.620;25.394;2023-08-08T09:25:39;97087.94;;;21.00;52.76
52591;BME280;38483;42.620;25.394;2023-08-08T09:29:01;97083.44;;;21.61;55.29
52591;BME280;38483;42.620;25.394;2023-08-08T09:32:28;97084.44;;;21.89;60.90
52591;BME280;38483;42.620;25.394;2023-08-08T09:35:45;97085.97;;;22.11;59.84
52591;BME280;38483;42.620;25.394;2023-08-08T09:39:06;97089.03;;;22.06;56.34
52591;BME280;38483;42.620;25.394;2023-08-08T09:42:28;97041.25;;;21.71;55.48
52591;BME280;38483;42.620;25.394;2023-08-08T09:45:55;97080.69;;;22.20;55.26
52591;BME280;38483;42.620;25.394;2023-08-08T09:49:16;97071.75;;;22.40;55.51
52591;BME280;38483;42.620;25.394;2023-08-08T09:52:37;97024.47;;;22.01;54.98
52591;BME280;38483;42.620;25.394;2023-08-08T09:55:58;97076.75;;;22.62;55.02
52591;BME280;38483;42.620;25.394;2023-08-08T09:59:18;97080.88;;;22.75;54.95
52591;BME280;38483;42.620;25.394;2023-08-08T10:02:39;97077.19;;;22.95;52.98
52591;BME280;38483;42.620;25.394;2023-08-08T10:06:01;97072.50;;;22.89;52.80
52591;BME280;38483;42.620;25.394;2023-08-08T10:09:21;97083.16;;;22.97;52.58
52591;BME280;38483;42.620;25.394;2023-08-08T10:12:42;97079.97;;;22.93;51.77
52591;BME280;38483;42.620;25.394;2023-08-08T10:16:04;97079.84;;;22.95;50.73
52591;BME280;38483;42.620;25.394;2023-08-08T10:19:24;97078.56;;;22.99;52.17
52591;BME280;38483;42.620;25.394;2023-08-08T10:22:45;97077.81;;;23.06;52.32
52591;BME280;38483;42.620;25.394;2023-08-08T10:26:17;97072.81;;;23.40;51.82
52591;BME280;38483;42.620;25.394;2023-08-08T10:29:29;97070.06;;;23.59;51.15
52591;BME280;38483;42.620;25.394;2023-08-08T10:32:50;97066.81;;;23.65;50.65
52591;BME280;38483;42.620;25.394;2023-08-08T10:36:17;97068.41;;;23.76;49.96
52591;BME280;38483;42.620;25.394;2023-08-08T10:39:48;97066.06;;;23.55;49.89
52591;BME280;38483;42.620;25.394;2023-08-08T10:43:09;97055.84;;;23.42;49.54
52591;BME280;38483;42.620;25.394;2023-08-08T10:49:24;97044.75;;;23.02;45.91
52591;BME280;38483;42.620;25.394;2023-08-08T10:52:51;97050.63;;;23.51;46.50
52591;BME280;38483;42.620;25.394;2023-08-08T10:56:13;97029.09;;;23.98;48.60
52591;BME280;38483;42.620;25.394;2023-08-08T10:59:37;97041.94;;;23.93;47.27
52591;BME280;38483;42.620;25.394;2023-08-08T11:02:58;97052.41;;;24.12;47.35
52591;BME280;38483;42.620;25.394;2023-08-08T11:06:18;97037.66;;;23.30;42.90
52591;BME280;38483;42.620;25.394;2023-08-08T11:09:39;97056.09;;;23.49;45.66
52591;BME280;38483;42.620;25.394;2023-08-08T11:13:00;97052.75;;;23.47;42.91
52591;BME280;38483;42.620;25.394;2023-08-08T11:16:20;97046.34;;;23.22;41.86
52591;BME280;38483;42.620;25.394;2023-08-08T11:19:41;97057.09;;;23.11;42.51
52591;BME280;38483;42.620;25.394;2023-08-08T11:23:02;97057.56;;;23.34;42.66
52591;BME280;38483;42.620;25.394;2023-08-08T11:26:23;97042.09;;;23.57;43.16
52591;BME280;38483;42.620;25.394;2023-08-08T11:29:51;97051.28;;;23.35;43.22
52591;BME280;38483;42.620;25.394;2023-08-08T11:33:14;97047.53;;;23.01;42.70
52591;BME280;38483;42.620;25.394;2023-08-08T11:36:35;97038.94;;;23.26;42.52
52591;BME280;38483;42.620;25.394;2023-08-08T11:39:58;97035.88;;;23.21;41.67
52591;BME280;38483;42.620;25.394;2023-08-08T11:43:19;97047.63;;;23.18;42.32
52591;BME280;38483;42.620;25.394;2023-08-08T11:46:43;97025.03;;;23.24;42.79
52591;BME280;38483;42.620;25.394;2023-08-08T11:50:06;97039.53;;;23.47;42.44
52591;BME280;38483;42.620;25.394;2023-08-08T11:53:30;97018.31;;;23.29;42.65
52591;BME280;38483;42.620;25.394;2023-08-08T11:56:54;97032.13;;;23.51;41.92
52591;BME280;38483;42.620;25.394;2023-08-08T12:00:15;97020.56;;;23.34;44.04
52591;BME280;38483;42.620;25.394;2023-08-08T12:03:38;97027.72;;;23.41;42.83
52591;BME280;38483;42.620;25.394;2023-08-08T12:07:02;97033.50;;;23.55;42.29
52591;BME280;38483;42.620;25.394;2023-08-08T12:10:23;97010.94;;;23.33;42.93
52591;BME280;38483;42.620;25.394;2023-08-08T12:13:44;97027.03;;;23.39;43.08
52591;BME280;38483;42.620;25.394;2023-08-08T12:17:04;97014.81;;;23.56;42.67
52591;BME280;38483;42.620;25.394;2023-08-08T12:20:27;97017.25;;;23.67;42.33
52591;BME280;38483;42.620;25.394;2023-08-08T12:23:46;97016.78;;;23.54;39.32
52591;BME280;38483;42.620;25.394;2023-08-08T12:27:06;97015.13;;;23.53;39.58
52591;BME280;38483;42.620;25.394;2023-08-08T12:30:27;97011.03;;;23.76;38.70
52591;BME280;38483;42.620;25.394;2023-08-08T12:33:48;97011.38;;;23.99;39.83
52591;BME280;38483;42.620;25.394;2023-08-08T12:37:09;97004.56;;;23.88;39.35
52591;BME280;38483;42.620;25.394;2023-08-08T12:40:29;96994.50;;;23.74;41.01
52591;BME280;38483;42.620;25.394;2023-08-08T12:43:51;97012.69;;;24.12;40.81
52591;BME280;38483;42.620;25.394;2023-08-08T12:47:12;97004.25;;;23.74;40.29
52591;BME280;38483;42.620;25.394;2023-08-08T12:50:36;97026.91;;;23.41;41.91
52591;BME280;38483;42.620;25.394;2023-08-08T12:53:57;97005.75;;;23.76;40.78
52591;BME280;38483;42.620;25.394;2023-08-08T12:57:18;97009.28;;;23.85;40.84
52591;BME280;38483;42.620;25.394;2023-08-08T13:00:39;97011.34;;;23.56;39.61
52591;BME280;38483;42.620;25.394;2023-08-08T13:04:00;96997.97;;;23.75;41.08
52591;BME280;38483;42.620;25.394;2023-08-08T13:07:21;96988.44;;;23.64;40.56
52591;BME280;38483;42.620;25.394;2023-08-08T13:10:41;96990.44;;;23.80;40.03
52591;BME280;38483;42.620;25.394;2023-08-08T13:14:02;97002.66;;;23.81;40.43
52591;BME280;38483;42.620;25.394;2023-08-08T13:17:23;97002.88;;;23.87;41.13
52591;BME280;38483;42.620;25.394;2023-08-08T13:20:43;97008.16;;;23.87;39.55
52591;BME280;38483;42.620;25.394;2023-08-08T13:24:05;97004.94;;;23.76;39.80
52591;BME280;38483;42.620;25.394;2023-08-08T13:27:25;96992.41;;;23.78;40.16
52591;BME280;38483;42.620;25.394;2023-08-08T13:30:45;96997.81;;;23.76;40.80
52591;BME280;38483;42.620;25.394;2023-08-08T13:34:09;96987.69;;;23.89;40.82
52591;BME280;38483;42.620;25.394;2023-08-08T13:37:30;96993.34;;;23.94;41.15
52591;BME280;38483;42.620;25.394;2023-08-08T13:40:52;96988.94;;;24.03;42.07
52591;BME280;38483;42.620;25.394;2023-08-08T13:44:13;96983.97;;;23.82;41.67
52591;BME280;38483;42.620;25.394;2023-08-08T13:47:34;96969.03;;;23.73;40.76
52591;BME280;38483;42.620;25.394;2023-08-08T13:50:55;96995.78;;;23.70;40.64
52591;BME280;38483;42.620;25.394;2023-08-08T13:54:16;97007.88;;;23.90;40.40
52591;BME280;38483;42.620;25.394;2023-08-08T13:57:36;96991.22;;;23.80;40.33
52591;BME280;38483;42.620;25.394;2023-08-08T14:00:58;97008.84;;;23.89;41.56
52591;BME280;38483;42.620;25.394;2023-08-08T14:04:21;97010.91;;;23.60;42.80
52591;BME280;38483;42.620;25.394;2023-08-08T14:07:42;97003.22;;;23.49;43.67
52591;BME280;38483;42.620;25.394;2023-08-08T14:11:03;97006.13;;;23.46;42.87
52591;BME280;38483;42.620;25.394;2023-08-08T14:14:24;97001.84;;;23.45;43.90
52591;BME280;38483;42.620;25.394;2023-08-08T14:17:44;97007.72;;;23.74;43.67
52591;BME280;38483;42.620;25.394;2023-08-08T14:21:05;97005.84;;;23.49;43.49
52591;BME280;38483;42.620;25.394;2023-08-08T14:24:27;97004.25;;;23.56;44.31
52591;BME280;38483;42.620;25.394;2023-08-08T14:27:49;97010.81;;;23.52;44.00
52591;BME280;38483;42.620;25.394;2023-08-08T14:31:10;97016.78;;;23.54;42.92
52591;BME280;38483;42.620;25.394;2023-08-08T14:34:31;97014.53;;;23.59;42.17
52591;BME280;38483;42.620;25.394;2023-08-08T14:37:51;96998.44;;;23.53;42.50
52591;BME280;38483;42.620;25.394;2023-08-08T14:41:12;97013.97;;;23.56;42.67
52591;BME280;38483;42.620;25.394;2023-08-08T14:44:32;97016.94;;;23.70;42.83
52591;BME280;38483;42.620;25.394;2023-08-08T14:47:53;97007.63;;;23.66;42.26
52591;BME280;38483;42.620;25.394;2023-08-08T14:51:14;97014.53;;;23.59;42.96
52591;BME280;38483;42.620;25.394;2023-08-08T14:54:35;97007.50;;;23.68;42.62
52591;BME280;38483;42.620;25.394;2023-08-08T14:57:56;97013.03;;;23.57;43.18
52591;BME280;38483;42.620;25.394;2023-08-08T15:01:17;97005.16;;;23.47;43.35
52591;BME280;38483;42.620;25.394;2023-08-08T15:04:37;97001.63;;;23.29;43.73
52591;BME280;38483;42.620;25.394;2023-08-08T15:07:58;97009.97;;;23.34;44.25
52591;BME280;38483;42.620;25.394;2023-08-08T15:11:19;97005.25;;;23.28;43.51
52591;BME280;38483;42.620;25.394;2023-08-08T15:14:40;96999.94;;;23.10;43.64
52591;BME280;38483;42.620;25.394;2023-08-08T15:18:00;97005.47;;;23.17;43.98
52591;BME280;38483;42.620;25.394;2023-08-08T15:21:21;97000.09;;;23.09;43.75
52591;BME280;38483;42.620;25.394;2023-08-08T15:24:42;97000.06;;;22.91;44.49
52591;BME280;38483;42.620;25.394;2023-08-08T15:28:03;96990.66;;;22.79;45.11